Time;durP1;ratioP1;P1;durP2;ratioP2;P2;SDS_P1;SDS_P2;PMS_P1;PMS_P2;Temp;Humidity;BMP_temperature;BMP_pressure;BME280_temperature;BME280_humidity;BME280_pressure;Samples;Min_cycle;Max_cycle;Signal;HPM_P1;HPM_P2
2021/12/10 00:00:19;;;;;;;26.92;13.25;;;4.30;99.90;;;;;;4864264;29;20516;-85
2021/12/10 00:02:46;;;;;;;30.75;13.38;;;4.30;99.90;;;;;;4865382;29;20033;-85
2021/12/10 00:05:31;;;;;;;25.95;14.40;;;4.20;99.90;;;;;;4882181;29;20025;-85
2021/12/10 00:07:58;;;;;;;23.58;13.35;;;4.20;99.90;;;;;;4865530;29;20039;-84
2021/12/10 00:10:30;;;;;;;29.60;15.02;;;4.20;99.90;;;;;;4865542;29;20025;-84
2021/12/10 00:12:57;;;;;;;23.27;13.90;;;4.20;99.90;;;;;;4865244;29;20081;-84
2021/12/10 00:15:26;;;;;;;27.23;15.07;;;4.20;99.90;;;;;;4865665;29;20018;-84
2021/12/10 00:17:55;;;;;;;27.33;15.20;;;4.20;99.90;;;;;;4882675;29;20037;-84
2021/12/10 00:20:24;;;;;;;27.60;15.63;;;4.20;99.90;;;;;;4864492;29;20037;-84
2021/12/10 00:22:56;;;;;;;28.25;16.08;;;4.20;99.90;;;;;;4880606;29;20027;-84
2021/12/10 00:25:33;;;;;;;24.25;15.15;;;4.20;99.90;;;;;;4864092;29;20044;-84
2021/12/10 00:27:59;;;;;;;23.92;15.20;;;4.10;99.90;;;;;;4863089;29;20053;-83
2021/12/10 00:30:33;;;;;;;24.15;15.50;;;4.00;99.90;;;;;;4864557;29;20072;-83
2021/12/10 00:33:13;;;;;;;33.83;16.40;;;4.00;99.90;;;;;;4881521;29;20080;-85
2021/12/10 00:35:41;;;;;;;29.70;17.20;;;4.00;99.90;;;;;;4881265;29;20040;-86
2021/12/10 00:38:08;;;;;;;28.52;15.90;;;3.90;99.90;;;;;;4882282;29;20040;-84
2021/12/10 00:40:35;;;;;;;26.45;17.83;;;3.90;99.90;;;;;;4887596;29;20025;-84
2021/12/10 00:43:03;;;;;;;25.25;16.63;;;3.90;99.90;;;;;;4885495;29;20080;-83
2021/12/10 00:45:28;;;;;;;26.75;17.52;;;3.90;99.90;;;;;;4871822;29;20017;-83
2021/12/10 00:47:54;;;;;;;24.77;15.68;;;3.90;99.90;;;;;;4868786;29;20040;-83
2021/12/10 00:50:26;;;;;;;28.55;17.10;;;3.80;99.90;;;;;;4881768;29;20016;-84
2021/12/10 00:52:53;;;;;;;26.88;16.00;;;3.80;99.90;;;;;;4887296;29;20047;-84
2021/12/10 00:55:25;;;;;;;30.50;17.70;;;3.80;99.90;;;;;;4886780;29;20029;-85
2021/12/10 00:57:52;;;;;;;25.67;15.70;;;3.80;99.90;;;;;;4884082;29;20074;-85
2021/12/10 01:00:23;;;;;;;28.10;16.98;;;3.70;99.90;;;;;;4882928;29;20053;-84
2021/12/10 01:02:50;;;;;;;33.22;16.35;;;3.80;99.90;;;;;;4880604;29;20028;-84
2021/12/10 01:05:16;;;;;;;25.50;15.48;;;3.80;99.90;;;;;;4881872;29;20093;-84
2021/12/10 01:07:43;;;;;;;25.15;14.65;;;3.80;99.90;;;;;;4875214;29;20029;-83
2021/12/10 01:10:15;;;;;;;24.25;15.65;;;3.80;99.90;;;;;;4865479;29;20032;-83
2021/12/10 01:12:46;;;;;;;25.57;14.80;;;3.90;99.90;;;;;;4866257;29;20048;-84
2021/12/10 01:26:41;;;;;;;21.23;14.77;;;4.00;99.90;;;;;;4806156;29;20094;-84
2021/12/10 01:29:09;;;;;;;23.25;14.63;;;4.00;99.90;;;;;;4855154;29;20121;-83
2021/12/10 01:31:36;;;;;;;24.33;14.73;;;4.00;99.90;;;;;;4854554;29;20504;-83
2021/12/10 01:34:04;;;;;;;20.35;14.23;;;4.00;99.90;;;;;;4860444;29;20076;-83
2021/12/10 01:36:30;;;;;;;22.23;14.23;;;3.90;99.90;;;;;;4859531;29;20029;-84
2021/12/10 01:38:56;;;;;;;21.83;14.07;;;3.80;99.90;;;;;;4860693;29;20092;-83
2021/12/10 01:41:26;;;;;;;26.75;13.80;;;3.70;99.90;;;;;;4860805;29;20409;-83
2021/12/10 01:44:00;;;;;;;22.90;14.38;;;3.70;99.90;;;;;;4860736;29;20029;-83
2021/12/10 01:46:27;;;;;;;;;;;3.60;99.90;;;;;;4859875;29;20503;-84
2021/12/10 01:48:57;;;;;;;20.88;13.10;;;3.60;99.90;;;;;;4859385;29;19915;-84
2021/12/10 01:51:27;;;;;;;20.52;12.82;;;3.50;99.90;;;;;;4844462;29;20021;-84
2021/12/10 01:53:56;;;;;;;18.83;12.65;;;3.50;99.90;;;;;;4859253;29;20030;-83
2021/12/10 01:56:30;;;;;;;25.30;13.35;;;3.40;99.90;;;;;;4858831;29;20034;-83
2021/12/10 01:58:58;;;;;;;20.75;11.90;;;3.40;99.90;;;;;;4858387;29;20045;-83
2021/12/10 02:01:40;;;;;;;16.38;11.52;;;3.40;99.90;;;;;;4859959;29;20022;-85
2021/12/10 02:04:07;;;;;;;20.67;12.98;;;3.30;99.90;;;;;;4859009;29;20026;-84
2021/12/10 02:06:34;;;;;;;16.45;11.30;;;3.30;99.90;;;;;;4863181;29;20476;-84
2021/12/10 02:09:00;;;;;;;18.70;12.10;;;3.30;99.90;;;;;;4862814;29;20026;-83
2021/12/10 02:11:26;;;;;;;16.77;11.68;;;3.30;99.90;;;;;;4862678;29;20036;-85
2021/12/10 02:13:52;;;;;;;17.80;11.13;;;3.30;99.90;;;;;;4862230;29;20026;-84
2021/12/10 02:16:17;;;;;;;17.50;11.43;;;3.20;99.90;;;;;;4863999;29;20108;-84
2021/12/10 02:18:44;;;;;;;19.52;11.38;;;3.20;99.90;;;;;;4862556;29;20403;-84
2021/12/10 02:21:09;;;;;;;20.50;11.77;;;3.10;99.90;;;;;;4862521;29;20032;-85
2021/12/10 02:23:41;;;;;;;19.88;11.73;;;3.10;99.90;;;;;;4863714;29;20029;-85
2021/12/10 02:26:11;;;;;;;22.17;12.02;;;3.00;99.90;;;;;;4861205;29;20033;-83
2021/12/10 02:28:37;;;;;;;17.10;11.43;;;3.00;99.90;;;;;;4865740;29;20457;-82
2021/12/10 02:31:07;;;;;;;16.73;10.93;;;3.00;99.90;;;;;;4865495;29;20101;-84
2021/12/10 02:33:33;;;;;;;17.25;10.10;;;2.90;99.90;;;;;;4865351;29;20442;-84
2021/12/10 02:35:59;;;;;;;17.05;10.93;;;2.90;99.90;;;;;;4882347;29;20535;-83
2021/12/10 02:38:25;;;;;;;15.70;10.45;;;2.80;99.90;;;;;;4864924;29;20037;-83
2021/12/10 02:40:53;;;;;;;16.85;10.70;;;2.80;99.90;;;;;;4865382;29;20028;-83
2021/12/10 02:43:21;;;;;;;14.35;9.88;;;2.70;99.90;;;;;;4864921;29;20384;-84
2021/12/10 02:45:50;;;;;;;17.38;11.25;;;2.70;99.90;;;;;;4864703;29;20020;-84
2021/12/10 02:48:16;;;;;;;14.57;10.27;;;2.70;99.90;;;;;;4865415;29;20097;-84
2021/12/10 02:50:43;;;;;;;16.48;10.82;;;2.70;99.90;;;;;;4882069;29;20492;-83
2021/12/10 02:53:10;;;;;;;17.50;11.02;;;2.70;99.90;;;;;;4865195;29;20117;-84
2021/12/10 02:55:36;;;;;;;15.65;10.20;;;2.70;99.90;;;;;;4882264;29;20576;-83
2021/12/10 02:58:06;;;;;;;15.25;10.63;;;2.70;99.90;;;;;;4865299;29;20041;-84
2021/12/10 03:00:39;;;;;;;15.35;9.77;;;2.60;99.90;;;;;;4866240;29;20025;-84
2021/12/10 03:03:04;;;;;;;15.43;9.88;;;2.60;99.90;;;;;;4865961;29;20503;-85
2021/12/10 03:05:30;;;;;;;22.05;10.90;;;2.60;99.90;;;;;;4866959;29;20041;-85
2021/12/10 03:07:56;;;;;;;17.08;10.43;;;2.60;99.90;;;;;;4864946;29;20027;-84
2021/12/10 03:10:29;;;;;;;14.50;9.27;;;2.60;99.90;;;;;;4864467;29;20029;-84
2021/12/10 03:12:55;;;;;;;16.45;9.30;;;2.50;99.90;;;;;;4877141;29;20380;-84
2021/12/10 03:15:24;;;;;;;14.73;8.70;;;2.60;99.90;;;;;;4865010;29;20032;-84
2021/12/10 03:17:50;;;;;;;13.45;8.43;;;2.50;99.90;;;;;;4864372;29;20400;-84
2021/12/10 03:20:20;;;;;;;14.90;7.07;;;2.50;99.90;;;;;;4864763;29;20387;-84
2021/12/10 03:22:46;;;;;;;11.43;6.95;;;2.50;99.90;;;;;;4864832;29;20028;-83
2021/12/10 03:25:13;;;;;;;10.98;7.05;;;2.50;99.90;;;;;;4864131;29;20067;-83
2021/12/10 03:27:40;;;;;;;10.77;6.82;;;2.50;99.90;;;;;;4867274;29;20045;-84
2021/12/10 03:30:09;;;;;;;12.75;7.20;;;2.50;99.90;;;;;;4864317;29;20036;-83
2021/12/10 03:32:37;;;;;;;11.18;7.05;;;2.50;99.90;;;;;;4881686;29;20044;-85
2021/12/10 03:35:09;;;;;;;10.45;6.85;;;2.40;99.90;;;;;;4864398;29;20136;-84
2021/12/10 03:37:37;;;;;;;15.20;7.63;;;2.50;99.90;;;;;;4864359;29;20176;-83
2021/12/10 03:40:06;;;;;;;9.98;6.97;;;2.50;99.90;;;;;;4881239;29;20029;-84
2021/12/10 03:42:31;;;;;;;9.07;6.20;;;2.50;99.90;;;;;;4881105;29;20127;-84
2021/12/10 03:44:57;;;;;;;11.88;6.53;;;2.50;99.90;;;;;;4864106;29;20168;-84
2021/12/10 03:47:23;;;;;;;9.98;6.57;;;2.50;99.90;;;;;;4880969;29;20134;-83
2021/12/10 03:49:49;;;;;;;9.82;6.47;;;2.50;99.90;;;;;;4863834;29;20026;-84
2021/12/10 03:52:14;;;;;;;10.23;6.93;;;2.50;99.90;;;;;;4864070;29;20033;-85
2021/12/10 03:54:41;;;;;;;11.20;6.32;;;2.50;99.90;;;;;;4863916;29;20036;-84
2021/12/10 03:57:07;;;;;;;11.02;7.45;;;2.50;99.90;;;;;;4864054;29;20039;-84
2021/12/10 03:59:35;;;;;;;8.98;6.38;;;2.50;99.90;;;;;;4880493;29;20039;-84
2021/12/10 04:02:04;;;;;;;11.32;7.45;;;2.50;99.90;;;;;;4863652;29;20041;-84
2021/12/10 04:04:36;;;;;;;14.43;7.25;;;2.50;99.90;;;;;;4880973;29;20033;-84
2021/12/10 04:07:06;;;;;;;11.55;6.88;;;2.50;99.90;;;;;;4880338;29;20064;-84
2021/12/10 04:09:33;;;;;;;10.95;6.80;;;2.60;99.90;;;;;;4880763;29;20031;-84
2021/12/10 04:11:59;;;;;;;11.70;6.88;;;2.50;99.90;;;;;;4865081;29;20025;-84
2021/12/10 04:14:26;;;;;;;9.70;6.50;;;2.40;99.90;;;;;;4865632;29;20060;-85
2021/12/10 04:16:56;;;;;;;13.45;7.32;;;2.50;99.90;;;;;;4865622;29;20120;-84
2021/12/10 04:19:25;;;;;;;13.10;7.85;;;2.40;99.90;;;;;;4850921;29;20600;-84
2021/12/10 04:21:52;;;;;;;13.90;8.95;;;2.40;99.90;;;;;;4865695;29;20606;-83
2021/12/10 04:24:20;;;;;;;11.80;7.18;;;2.40;99.90;;;;;;4865392;29;20052;-84
2021/12/10 04:26:47;;;;;;;10.30;6.90;;;2.50;99.90;;;;;;4864830;29;20021;-84
2021/12/10 04:29:14;;;;;;;14.05;8.18;;;2.50;99.90;;;;;;4862202;29;20043;-84
2021/12/10 04:31:40;;;;;;;11.60;6.30;;;2.50;99.90;;;;;;4863508;29;20029;-84
2021/12/10 04:34:06;;;;;;;12.40;6.18;;;2.50;99.90;;;;;;4863249;29;20033;-84
2021/12/10 04:36:34;;;;;;;11.70;6.45;;;2.50;99.90;;;;;;4863215;29;20021;-85
2021/12/10 04:38:59;;;;;;;12.52;7.05;;;2.50;99.90;;;;;;4879780;29;20041;-84
2021/12/10 04:41:25;;;;;;;14.80;7.43;;;2.50;99.90;;;;;;4863073;29;20508;-84
2021/12/10 04:43:52;;;;;;;12.52;6.80;;;2.50;99.90;;;;;;4880045;29;20037;-84
2021/12/10 04:46:17;;;;;;;12.15;6.90;;;2.60;99.90;;;;;;4863075;29;20021;-83
2021/12/10 04:48:43;;;;;;;13.95;7.25;;;2.50;99.90;;;;;;4863189;29;20036;-85
2021/12/10 04:51:08;;;;;;;9.68;6.40;;;2.60;99.90;;;;;;4863028;29;20081;-84
2021/12/10 04:53:34;;;;;;;12.25;6.90;;;2.50;99.90;;;;;;4862938;29;20032;-84
2021/12/10 04:56:00;;;;;;;10.82;5.90;;;2.60;99.90;;;;;;4862681;29;20025;-84
2021/12/10 04:58:25;;;;;;;15.40;6.05;;;2.60;99.90;;;;;;4862529;29;20040;-84
2021/12/10 05:00:51;;;;;;;11.25;5.32;;;2.60;99.90;;;;;;4862785;29;20096;-84
2021/12/10 05:03:17;;;;;;;9.75;6.15;;;2.60;99.90;;;;;;4862788;29;20020;-84
2021/12/10 05:05:44;;;;;;;14.52;6.32;;;2.60;99.90;;;;;;4863187;29;20017;-84
2021/12/10 05:08:10;;;;;;;14.07;6.72;;;2.60;99.90;;;;;;4862790;29;20040;-83
2021/12/10 05:10:36;;;;;;;12.40;5.32;;;2.60;99.90;;;;;;4879704;29;20017;-83
2021/12/10 05:13:03;;;;;;;10.43;5.55;;;2.60;99.90;;;;;;4862547;29;20032;-84
2021/12/10 05:15:32;;;;;;;11.88;5.43;;;2.60;99.90;;;;;;4862868;29;20032;-84
2021/12/10 05:17:58;;;;;;;9.68;5.65;;;2.60;99.90;;;;;;4862745;29;20055;-83
2021/12/10 05:20:30;;;;;;;11.05;5.93;;;2.60;99.90;;;;;;4880675;29;20527;-84
2021/12/10 05:22:56;;;;;;;15.65;7.22;;;2.60;99.90;;;;;;4864518;29;20055;-84
2021/12/10 05:25:26;;;;;;;8.73;5.10;;;2.60;99.90;;;;;;4880709;29;20032;-84
2021/12/10 05:27:52;;;;;;;8.80;5.15;;;2.50;99.90;;;;;;4864017;29;20087;-84
2021/12/10 05:30:22;;;;;;;13.95;6.07;;;2.50;99.90;;;;;;4863800;29;20029;-84
2021/12/10 05:32:48;;;;;;;11.60;5.63;;;2.50;99.90;;;;;;4862699;29;20029;-84
2021/12/10 05:35:14;;;;;;;11.02;6.32;;;2.50;99.90;;;;;;4862668;29;20033;-83
2021/12/10 05:37:40;;;;;;;16.15;6.68;;;2.50;99.90;;;;;;4879212;29;20037;-84
2021/12/10 05:40:10;;;;;;;17.80;7.45;;;2.60;99.90;;;;;;4865087;29;20373;-85
2021/12/10 05:42:36;;;;;;;20.63;8.32;;;2.60;99.90;;;;;;4868985;29;20036;-84
2021/12/10 05:45:04;;;;;;;15.35;6.47;;;2.60;99.90;;;;;;4870105;29;20017;-83
2021/12/10 05:47:29;;;;;;;16.65;6.60;;;2.70;99.90;;;;;;4871203;29;20173;-83
2021/12/10 05:49:55;;;;;;;16.30;7.43;;;2.70;99.90;;;;;;4870446;29;20504;-83
2021/12/10 05:52:21;;;;;;;14.43;6.93;;;2.70;99.90;;;;;;4871156;29;20558;-84
2021/12/10 05:54:47;;;;;;;15.55;7.10;;;2.80;99.90;;;;;;4870820;29;20050;-84
2021/12/10 05:57:13;;;;;;;17.90;7.20;;;2.80;99.90;;;;;;4869721;29;20133;-83
2021/12/10 05:59:39;;;;;;;15.65;6.72;;;2.80;99.90;;;;;;4869189;29;20545;-84
2021/12/10 06:02:05;;;;;;;19.23;6.70;;;2.90;99.90;;;;;;4869601;29;20053;-85
2021/12/10 06:04:31;;;;;;;14.38;6.82;;;2.90;99.90;;;;;;4885567;29;20045;-84
2021/12/10 06:06:57;;;;;;;11.40;5.82;;;2.90;99.90;;;;;;4868725;29;20077;-84
2021/12/10 06:09:24;;;;;;;13.77;6.05;;;2.90;99.90;;;;;;4871627;29;20044;-83
2021/12/10 06:11:50;;;;;;;10.82;5.43;;;3.00;99.90;;;;;;4871882;29;20437;-83
2021/12/10 06:14:15;;;;;;;10.05;5.93;;;3.00;99.90;;;;;;4868850;29;20021;-83
2021/12/10 06:16:41;;;;;;;11.35;5.53;;;2.90;99.90;;;;;;4885353;29;20036;-83
2021/12/10 06:19:08;;;;;;;10.68;5.40;;;2.90;99.90;;;;;;4870239;29;20041;-84
2021/12/10 06:21:35;;;;;;;17.02;7.63;;;2.90;99.90;;;;;;4868788;29;20031;-83
2021/12/10 06:24:03;;;;;;;16.48;8.10;;;2.90;99.90;;;;;;4870113;29;20121;-83
2021/12/10 06:26:29;;;;;;;20.48;7.82;;;2.90;99.90;;;;;;4869676;29;20497;-85
2021/12/10 06:28:54;;;;;;;14.77;7.97;;;2.90;99.90;;;;;;4886364;29;20052;-85
2021/12/10 06:31:22;;;;;;;15.82;7.40;;;2.80;99.90;;;;;;4869706;29;20097;-85
2021/12/10 06:33:49;;;;;;;18.33;8.02;;;2.80;99.90;;;;;;4887420;29;20089;-85
2021/12/10 06:36:16;;;;;;;16.90;8.15;;;2.80;99.90;;;;;;4885500;29;20124;-85
2021/12/10 06:38:43;;;;;;;11.80;6.30;;;2.80;99.90;;;;;;4869904;29;20036;-85
2021/12/10 06:41:09;;;;;;;15.70;7.03;;;2.80;99.90;;;;;;4869857;29;20085;-85
2021/12/10 06:43:36;;;;;;;18.55;7.35;;;2.80;99.90;;;;;;4870496;29;20035;-85
2021/12/10 06:46:04;;;;;;;13.57;6.47;;;2.90;99.90;;;;;;4868519;29;20033;-84
2021/12/10 06:48:30;;;;;;;13.43;5.85;;;2.90;99.90;;;;;;4884111;29;20025;-84
2021/12/10 06:50:59;;;;;;;12.60;5.15;;;2.90;99.90;;;;;;4884342;29;20040;-84
2021/12/10 06:53:27;;;;;;;10.88;6.05;;;3.00;99.90;;;;;;4880779;29;20021;-84
2021/12/10 06:55:53;;;;;;;13.60;6.00;;;2.90;99.90;;;;;;4881789;29;20033;-83
2021/12/10 06:58:20;;;;;;;12.13;5.50;;;3.00;99.90;;;;;;4865892;29;20112;-83
2021/12/10 07:00:54;;;;;;;10.05;5.65;;;3.00;99.90;;;;;;4881841;29;20029;-84
2021/12/10 07:03:26;;;;;;;14.73;5.35;;;3.10;99.90;;;;;;4866739;29;20142;-83
2021/12/10 07:05:54;;;;;;;13.73;5.00;;;3.10;99.90;;;;;;4865836;29;20029;-84
2021/12/10 07:08:21;;;;;;;17.80;6.18;;;3.10;99.90;;;;;;4865868;29;20025;-84
2021/12/10 07:10:48;;;;;;;12.20;5.13;;;3.10;99.90;;;;;;4876208;29;20017;-84
2021/12/10 07:13:15;;;;;;;11.00;5.13;;;3.20;99.90;;;;;;4882072;29;20036;-84
2021/12/10 07:15:44;;;;;;;12.43;5.20;;;3.10;99.90;;;;;;4867040;29;20033;-83
2021/12/10 07:18:11;;;;;;;13.68;4.80;;;3.10;99.90;;;;;;4870684;29;20076;-84
2021/12/10 07:20:38;;;;;;;15.32;5.55;;;3.20;99.90;;;;;;4876370;29;20017;-85
2021/12/10 07:23:04;;;;;;;15.05;5.20;;;3.10;99.90;;;;;;4874157;29;20061;-84
2021/12/10 07:25:30;;;;;;;13.07;4.15;;;3.20;99.90;;;;;;4876256;29;20037;-85
2021/12/10 07:27:56;;;;;;;12.38;4.78;;;3.20;99.90;;;;;;4873750;29;20194;-85
2021/12/10 07:30:24;;;;;;;10.75;4.32;;;3.20;99.90;;;;;;4876385;29;20029;-83
2021/12/10 07:32:50;;;;;;;15.00;5.28;;;3.20;99.90;;;;;;4876393;29;20510;-83
2021/12/10 07:35:16;;;;;;;10.75;4.30;;;3.20;99.90;;;;;;4894132;29;20035;-84
2021/12/10 07:37:42;;;;;;;12.00;4.93;;;3.30;99.90;;;;;;4880050;29;20068;-84
2021/12/10 07:40:12;;;;;;;11.00;4.95;;;3.30;99.90;;;;;;4878346;29;20017;-84
2021/12/10 07:42:38;;;;;;;12.10;4.40;;;3.30;99.90;;;;;;4874784;29;20093;-85
2021/12/10 07:45:06;;;;;;;12.32;5.03;;;3.40;99.90;;;;;;4874722;29;20077;-83
2021/12/10 07:47:36;;;;;;;9.43;4.03;;;3.40;99.90;;;;;;4870403;29;20039;-83
2021/12/10 07:50:06;;;;;;;14.20;4.55;;;3.40;99.90;;;;;;4873639;29;20081;-83
2021/12/10 07:52:34;;;;;;;9.23;3.92;;;3.40;99.90;;;;;;4870751;29;20028;-83
2021/12/10 07:55:01;;;;;;;9.48;4.88;;;3.40;99.90;;;;;;4887798;29;20025;-82
2021/12/10 07:57:29;;;;;;;13.93;5.07;;;3.50;99.90;;;;;;4871326;29;20146;-84
2021/12/10 07:59:55;;;;;;;13.50;5.25;;;3.50;99.90;;;;;;4884944;29;20036;-84
2021/12/10 08:02:21;;;;;;;10.00;4.20;;;3.50;99.90;;;;;;4868443;29;20029;-84
2021/12/10 08:04:47;;;;;;;11.32;4.30;;;3.50;99.90;;;;;;4868240;29;20037;-84
2021/12/10 08:07:13;;;;;;;19.13;5.32;;;3.50;99.90;;;;;;4885232;29;20554;-84
2021/12/10 08:09:40;;;;;;;13.60;5.00;;;3.50;99.90;;;;;;4886245;29;20417;-85
2021/12/10 08:12:06;;;;;;;9.85;4.30;;;3.60;99.90;;;;;;4888184;29;20029;-84
2021/12/10 08:14:32;;;;;;;8.68;3.80;;;3.60;99.90;;;;;;4876126;29;20021;-84
2021/12/10 08:16:58;;;;;;;9.88;4.05;;;3.60;99.90;;;;;;4874688;29;20624;-83
2021/12/10 08:19:23;;;;;;;7.68;3.45;;;3.60;99.90;;;;;;4884159;29;20036;-84
2021/12/10 08:21:49;;;;;;;9.43;3.30;;;3.60;99.90;;;;;;4873846;29;20498;-84
2021/12/10 08:24:14;;;;;;;6.63;3.33;;;3.60;99.90;;;;;;4880887;29;20033;-83
2021/12/10 08:26:41;;;;;;;11.63;3.60;;;3.60;99.90;;;;;;4899373;29;20052;-83
2021/12/10 08:29:08;;;;;;;8.63;3.28;;;3.60;99.90;;;;;;4901936;29;20081;-84
2021/12/10 08:31:33;;;;;;;7.63;3.80;;;3.60;99.90;;;;;;4902479;29;20019;-83
2021/12/10 08:33:59;;;;;;;9.57;3.72;;;3.60;99.90;;;;;;4886958;29;20041;-85
2021/12/10 08:36:27;;;;;;;9.38;3.17;;;3.60;99.90;;;;;;4884664;29;20029;-85
2021/12/10 08:38:52;;;;;;;9.23;3.80;;;3.60;99.90;;;;;;4886403;29;20104;-86
2021/12/10 08:41:22;;;;;;;10.73;3.88;;;3.70;99.90;;;;;;4885519;29;20054;-85
2021/12/10 08:43:49;;;;;;;8.98;3.58;;;3.70;99.90;;;;;;4901275;29;20054;-84
2021/12/10 08:46:15;;;;;;;6.47;3.60;;;3.70;99.90;;;;;;4883451;29;20025;-84
2021/12/10 08:48:43;;;;;;;8.38;3.22;;;3.70;99.90;;;;;;4900277;29;20021;-84
2021/12/10 08:51:22;;;;;;;7.13;3.75;;;3.70;99.90;;;;;;4882530;29;20045;-85
2021/12/10 08:53:48;;;;;;;5.97;3.25;;;3.80;99.90;;;;;;4871469;29;20036;-84
2021/12/10 08:56:14;;;;;;;11.77;4.72;;;3.70;99.90;;;;;;4887241;29;20025;-85
2021/12/10 08:58:41;;;;;;;8.43;4.35;;;3.80;99.90;;;;;;4870209;29;20053;-85
2021/12/10 09:01:13;;;;;;;9.88;3.92;;;3.80;99.90;;;;;;4868542;29;20082;-85
2021/12/10 09:03:39;;;;;;;11.90;4.47;;;3.90;99.90;;;;;;4865013;29;20037;-85
2021/12/10 09:06:07;;;;;;;8.52;4.10;;;3.80;99.90;;;;;;4865177;29;20021;-85
2021/12/10 09:08:32;;;;;;;10.65;4.95;;;3.90;99.90;;;;;;4865158;29;20025;-85
2021/12/10 09:10:58;;;;;;;8.73;3.90;;;3.90;99.90;;;;;;4864698;29;20041;-84
2021/12/10 09:13:25;;;;;;;9.35;4.13;;;4.00;99.90;;;;;;4866040;29;20040;-84
2021/12/10 09:15:57;;;;;;;8.13;3.97;;;4.00;99.90;;;;;;4884832;29;20025;-85
2021/12/10 09:18:23;;;;;;;8.57;3.80;;;4.00;99.90;;;;;;4867212;29;20129;-85
2021/12/10 09:20:51;;;;;;;9.20;4.05;;;4.00;99.90;;;;;;4882267;29;20057;-84
2021/12/10 09:23:21;;;;;;;8.48;4.35;;;4.00;99.90;;;;;;4867398;29;20060;-84
2021/12/10 09:25:49;;;;;;;10.60;4.25;;;4.00;99.90;;;;;;4866125;29;20369;-83
2021/12/10 09:28:15;;;;;;;10.45;4.20;;;4.10;99.90;;;;;;4882269;29;20072;-83
2021/12/10 09:30:44;;;;;;;13.57;5.00;;;4.10;99.90;;;;;;4864425;29;20036;-83
2021/12/10 09:33:10;;;;;;;8.77;5.45;;;4.20;99.90;;;;;;4881733;29;20029;-84
2021/12/10 09:35:38;;;;;;;8.00;4.10;;;4.20;99.90;;;;;;4865192;29;20037;-84
2021/12/10 09:38:05;;;;;;;8.43;4.40;;;4.20;99.90;;;;;;4865076;29;20390;-85
2021/12/10 09:40:40;;;;;;;12.15;5.13;;;4.20;99.90;;;;;;4864064;29;20032;-86
2021/12/10 09:43:08;;;;;;;9.50;4.45;;;4.20;99.90;;;;;;4863093;29;20695;-84
2021/12/10 09:45:35;;;;;;;11.13;5.38;;;4.20;99.90;;;;;;4879858;29;20005;-86
2021/12/10 09:48:03;;;;;;;12.55;5.05;;;4.20;99.90;;;;;;4862815;29;20047;-85
2021/12/10 09:50:33;;;;;;;8.70;4.53;;;4.20;99.90;;;;;;4863259;29;20031;-84
2021/12/10 09:52:59;;;;;;;11.85;4.88;;;4.30;99.90;;;;;;4862918;29;20048;-83
2021/12/10 09:55:27;;;;;;;8.77;4.45;;;4.30;99.90;;;;;;4862813;29;20025;-85
2021/12/10 09:57:53;;;;;;;8.18;4.35;;;4.30;99.90;;;;;;4863683;29;20204;-84
2021/12/10 10:00:34;;;;;;;8.18;3.63;;;4.30;99.90;;;;;;4863123;29;20022;-86
2021/12/10 10:03:00;;;;;;;8.40;4.25;;;4.30;99.90;;;;;;4863288;29;20029;-85
2021/12/10 10:05:27;;;;;;;7.38;3.70;;;4.40;99.90;;;;;;4862249;29;20463;-84
2021/12/10 10:07:58;;;;;;;14.80;4.95;;;4.40;99.90;;;;;;4878322;29;20037;-85
2021/12/10 10:10:25;;;;;;;8.50;3.80;;;4.40;99.90;;;;;;4892954;29;20506;-85
2021/12/10 10:12:55;;;;;;;8.18;3.58;;;4.40;99.90;;;;;;4878980;29;20049;-85
2021/12/10 10:15:31;;;;;;;7.57;3.50;;;4.50;99.90;;;;;;4879240;29;20552;-84
2021/12/10 10:17:59;;;;;;;6.18;2.78;;;4.50;99.90;;;;;;4862730;29;20037;-85
2021/12/10 10:20:28;;;;;;;8.82;3.10;;;4.50;99.90;;;;;;4862615;29;20021;-84
2021/12/10 10:22:53;;;;;;;8.95;3.50;;;4.60;99.90;;;;;;4876340;29;20399;-85
2021/12/10 10:25:23;;;;;;;8.93;3.40;;;4.60;99.90;;;;;;4860570;29;20021;-86
2021/12/10 10:27:49;;;;;;;9.82;3.70;;;4.60;99.90;;;;;;4872392;29;20128;-87
2021/12/10 10:30:25;;;;;;;7.57;3.35;;;4.70;99.90;;;;;;4844104;29;20578;-86
2021/12/10 10:32:52;;;;;;;7.57;3.50;;;4.70;99.90;;;;;;4844828;29;20763;-88
2021/12/10 10:35:28;;;;;;;7.85;3.10;;;4.70;99.90;;;;;;4845350;29;20084;-86
2021/12/10 10:37:56;;;;;;;7.25;2.92;;;4.80;99.90;;;;;;4847094;29;20072;-85
2021/12/10 10:40:27;;;;;;;8.55;3.00;;;4.80;99.90;;;;;;4863181;29;20028;-84
2021/12/10 10:42:53;;;;;;;9.80;3.00;;;4.80;99.90;;;;;;4846879;29;20013;-85
2021/12/10 10:45:24;;;;;;;9.88;2.78;;;4.90;99.90;;;;;;4859835;29;20028;-84
2021/12/10 10:47:51;;;;;;;5.88;2.70;;;4.90;99.90;;;;;;4845088;29;20053;-86
2021/12/10 10:50:22;;;;;;;8.52;3.20;;;5.00;99.90;;;;;;4860577;29;20037;-87
2021/12/10 10:52:56;;;;;;;7.72;3.22;;;5.00;99.90;;;;;;4844019;29;20036;-84
2021/12/10 10:55:32;;;;;;;6.70;3.22;;;5.00;99.90;;;;;;4830065;29;20021;-85
2021/12/10 10:58:04;;;;;;;9.20;3.40;;;5.00;99.90;;;;;;4846727;29;20074;-84
2021/12/10 11:00:32;;;;;;;6.53;3.03;;;5.00;99.90;;;;;;4861888;29;20018;-84
2021/12/10 11:03:03;;;;;;;9.35;3.47;;;5.10;99.90;;;;;;4846739;29;20136;-83
2021/12/10 11:05:31;;;;;;;10.90;2.92;;;5.10;99.90;;;;;;4846497;29;20474;-84
2021/12/10 11:08:03;;;;;;;9.05;3.15;;;5.10;99.90;;;;;;4846135;29;20496;-85
2021/12/10 11:10:36;;;;;;;16.48;3.53;;;5.10;99.90;;;;;;4846867;29;20021;-84
2021/12/10 11:13:21;;;;;;;7.88;3.60;;;5.10;99.90;;;;;;4847448;29;20033;-87
2021/12/10 11:16:01;;;;;;;10.98;3.65;;;5.10;99.90;;;;;;4849495;29;20029;-86
2021/12/10 11:18:37;;;;;;;9.70;3.75;;;5.10;99.90;;;;;;4862456;29;20076;-86
2021/12/10 11:21:03;;;;;;;9.77;4.30;;;5.10;99.90;;;;;;4852342;29;20123;-86
2021/12/10 11:23:31;;;;;;;7.97;3.40;;;5.10;99.90;;;;;;4855407;29;20037;-84
2021/12/10 11:25:56;;;;;;;9.07;3.45;;;5.10;99.90;;;;;;4853916;29;20476;-85
2021/12/10 11:28:33;;;;;;;8.68;3.13;;;5.10;99.90;;;;;;4862183;29;20103;-83
2021/12/10 11:31:17;;;;;;;6.53;2.60;;;5.20;99.90;;;;;;4863476;29;20024;-86
2021/12/10 11:33:51;;;;;;;9.50;2.35;;;5.20;99.90;;;;;;4854770;29;20487;-85
2021/12/10 11:36:23;;;;;;;8.23;2.40;;;5.10;99.90;;;;;;4847205;29;20128;-85
2021/12/10 11:38:55;;;;;;;8.47;2.40;;;5.10;99.90;;;;;;4859922;29;20029;-88
2021/12/10 11:41:26;;;;;;;7.55;2.40;;;5.10;99.90;;;;;;4864646;29;20280;-86
2021/12/10 11:44:26;;;;;;;12.23;2.75;;;5.10;99.90;;;;;;4864727;29;20472;-85
2021/12/10 11:49:41;;;;;;;8.73;2.35;;;5.10;99.90;;;;;;4871374;29;20097;-85
2021/12/10 11:52:06;;;;;;;9.75;2.50;;;5.10;99.90;;;;;;4860954;29;20039;-84
2021/12/10 11:54:40;;;;;;;10.35;2.88;;;5.10;99.90;;;;;;4874032;29;20033;-84
2021/12/10 11:57:08;;;;;;;;;;;5.10;99.90;;;;;;4875966;29;20029;-83
2021/12/10 11:59:56;;;;;;;11.48;3.88;;;5.10;99.90;;;;;;4879125;29;19912;-84
2021/12/10 12:02:25;;;;;;;8.68;2.63;;;5.10;99.90;;;;;;4879672;29;20065;-86
2021/12/10 12:05:16;;;;;;;8.00;2.83;;;5.10;99.90;;;;;;4877055;29;20033;-87
2021/12/10 12:07:46;;;;;;;5.75;1.90;;;5.10;99.90;;;;;;4867200;29;20033;-86
2021/12/10 12:10:30;;;;;;;6.50;2.35;;;5.10;99.90;;;;;;4868194;29;20574;-84
2021/12/10 12:13:04;;;;;;;5.00;2.20;;;5.10;99.90;;;;;;4857250;29;20815;-86
2021/12/10 12:15:37;;;;;;;7.93;2.40;;;5.20;99.90;;;;;;4874941;29;20029;-86
2021/12/10 12:18:22;;;;;;;5.90;2.95;;;5.20;99.90;;;;;;4863193;29;20116;-86
2021/12/10 12:27:12;;;;;;;9.00;3.33;;;5.20;99.90;;;;;;4869924;29;20128;-83
2021/12/10 12:29:49;;;;;;;9.48;2.70;;;5.20;99.90;;;;;;4868560;29;20085;-85
2021/12/10 12:32:22;;;;;;;7.97;2.38;;;5.30;99.90;;;;;;4857820;29;20029;-85
2021/12/10 12:34:48;;;;;;;7.10;2.40;;;5.30;99.90;;;;;;4864046;29;20116;-84
2021/12/10 12:37:16;;;;;;;4.93;1.88;;;5.30;99.90;;;;;;4863259;29;20507;-84
2021/12/10 12:39:44;;;;;;;5.50;2.33;;;5.30;99.90;;;;;;4867944;29;20037;-86
2021/12/10 12:42:26;;;;;;;5.90;2.80;;;5.30;99.90;;;;;;4877426;29;20464;-86
2021/12/10 12:44:59;;;;;;;8.30;2.38;;;5.30;99.90;;;;;;4871391;29;20544;-84
2021/12/10 12:47:38;;;;;;;4.95;2.40;;;5.30;99.90;;;;;;4854883;29;20492;-84
2021/12/10 12:50:22;;;;;;;4.68;1.65;;;5.30;99.90;;;;;;4860204;29;20040;-85
2021/12/10 12:53:13;;;;;;;6.55;1.90;;;5.30;99.90;;;;;;4861891;29;20036;-85
2021/12/10 12:55:47;;;;;;;5.03;2.00;;;5.30;99.90;;;;;;4868946;29;20057;-85
2021/12/10 12:58:13;;;;;;;4.22;1.98;;;5.30;99.90;;;;;;4865795;29;20519;-87
2021/12/10 13:01:14;;;;;;;4.05;1.67;;;5.30;99.90;;;;;;4857311;29;20034;-85
2021/12/10 13:03:43;;;;;;;6.45;1.65;;;5.40;99.90;;;;;;4846526;29;20083;-86
2021/12/10 13:06:24;;;;;;;7.15;1.80;;;5.30;99.90;;;;;;4860535;29;20044;-85
2021/12/10 13:09:07;;;;;;;6.80;1.88;;;5.30;99.90;;;;;;4863107;29;20128;-85
2021/12/10 13:11:47;;;;;;;5.50;1.40;;;5.30;99.90;;;;;;4850705;29;20621;-83
2021/12/10 13:14:20;;;;;;;8.07;2.13;;;5.40;99.90;;;;;;4862591;29;20052;-84
2021/12/10 13:16:56;;;;;;;4.90;2.40;;;5.40;99.90;;;;;;4863028;29;20057;-84